Time;durP1;ratioP1;P1;durP2;ratioP2;P2;SDS_P1;SDS_P2;PMS_P1;PMS_P2;Temp;Humidity;BMP_temperature;BMP_pressure;BME280_temperature;BME280_humidity;BME280_pressure;Samples;Min_cycle;Max_cycle;Signal;HPM_P1;HPM_P2
2021/04/21 00:01:45;;;;;;;4.77;2.27;;;;;;;5.10;95.24;100879.00;4956346;28;20231;-77
2021/04/21 00:04:14;;;;;;;3.43;2.30;;;;;;;4.99;94.98;100878.97;4941731;29;20198;-76
2021/04/21 00:06:40;;;;;;;4.60;2.60;;;;;;;4.90;94.07;100874.16;4917612;29;20281;-76
2021/04/21 00:09:08;;;;;;;5.07;2.37;;;;;;;4.89;93.76;100883.28;4921783;29;20286;-76
2021/04/21 00:11:37;;;;;;;4.07;2.60;;;;;;;4.79;93.20;100872.25;4906413;29;20243;-76
2021/04/21 00:14:05;;;;;;;5.90;2.10;;;;;;;4.80;92.91;100879.25;4905937;29;20689;-76
2021/04/21 00:16:34;;;;;;;5.27;2.37;;;;;;;4.67;92.71;100871.38;4921255;29;20239;-75
2021/04/21 00:19:03;;;;;;;6.00;2.60;;;;;;;4.69;92.56;100863.94;4923098;29;20196;-76
2021/04/21 00:21:29;;;;;;;5.40;2.30;;;;;;;4.66;92.08;100865.19;4905225;29;20309;-76
2021/04/21 00:23:55;;;;;;;3.77;2.60;;;;;;;4.64;92.01;100866.47;4905445;29;20250;-75
2021/04/21 00:26:21;;;;;;;4.43;2.60;;;;;;;4.39;92.51;100876.53;4904569;29;20236;-75
2021/04/21 00:28:51;;;;;;;3.57;2.50;;;;;;;4.38;93.83;100885.66;4905817;29;20609;-74
2021/04/21 00:31:16;;;;;;;3.07;2.77;;;;;;;4.53;93.05;100878.00;4905791;29;20744;-76
2021/04/21 00:33:42;;;;;;;4.77;2.60;;;;;;;4.55;92.78;100873.22;4888765;29;20286;-75
2021/04/21 00:36:11;;;;;;;4.13;2.63;;;;;;;4.60;93.10;100868.81;4937057;29;20250;-75
2021/04/21 00:38:37;;;;;;;4.27;2.50;;;;;;;4.44;93.10;100874.00;4906026;29;20188;-75
2021/04/21 00:41:21;;;;;;;4.00;2.53;;;;;;;4.37;95.01;100878.63;4905558;29;20270;-76
2021/04/21 00:44:09;;;;;;;5.53;2.60;;;;;;;4.53;95.74;100872.63;4909092;29;20192;-76
2021/04/21 00:46:47;;;;;;;4.93;2.63;;;;;;;4.18;96.93;100868.16;4935942;29;20352;-76
2021/04/21 00:49:26;;;;;;;3.73;2.60;;;;;;;4.28;98.68;100874.63;4891799;29;20195;-75
2021/04/21 00:52:00;;;;;;;5.37;2.23;;;;;;;4.37;98.29;100872.44;4904856;29;20828;-75
2021/04/21 00:54:32;;;;;;;5.13;2.47;;;;;;;4.31;98.25;100858.03;4905358;29;20228;-75
2021/04/21 00:57:02;;;;;;;4.97;3.03;;;;;;;4.19;98.00;100875.16;4905154;29;20236;-76
2021/04/21 00:59:55;;;;;;;5.00;3.30;;;;;;;4.09;100.00;100868.69;4921773;29;20191;-76
2021/04/21 01:02:26;;;;;;;4.30;3.30;;;;;;;4.12;100.00;100874.44;4936373;28;20234;-76
2021/04/21 01:04:56;;;;;;;3.70;3.13;;;;;;;4.17;100.00;100865.69;4906358;29;20546;-75
2021/04/21 01:07:21;;;;;;;3.83;3.40;;;;;;;4.37;99.19;100862.50;4888802;29;20813;-77
2021/04/21 01:09:51;;;;;;;4.37;3.20;;;;;;;4.40;97.74;100862.06;4918883;29;20563;-77
2021/04/21 01:12:20;;;;;;;5.57;3.20;;;;;;;4.37;97.63;100862.50;4902293;29;20224;-77
2021/04/21 01:14:52;;;;;;;5.07;2.80;;;;;;;4.19;97.98;100868.97;4902027;29;20188;-77
2021/04/21 01:17:18;;;;;;;5.17;2.80;;;;;;;4.01;97.88;100861.75;4917191;29;20310;-77
2021/04/21 01:19:57;;;;;;;4.90;3.10;;;;;;;3.93;98.12;100858.53;4902260;29;20196;-76
2021/04/21 01:22:27;;;;;;;4.70;3.20;;;;;;;4.03;97.68;100864.19;4932001;28;20808;-75
2021/04/21 01:25:02;;;;;;;5.67;2.83;;;;;;;4.02;96.89;100863.38;4917576;29;20184;-75
2021/04/21 01:27:49;;;;;;;5.03;3.30;;;;;;;3.88;96.70;100856.53;4917613;29;20219;-76
2021/04/21 01:30:22;;;;;;;3.97;2.70;;;;;;;3.77;97.35;100864.50;4917711;28;20235;-76
2021/04/21 01:32:57;;;;;;;7.03;3.07;;;;;;;3.57;98.28;100863.91;4903360;29;20251;-76
2021/04/21 01:35:23;;;;;;;4.17;3.00;;;;;;;3.30;100.00;100867.06;4918285;28;20227;-76
2021/04/21 01:37:49;;;;;;;4.33;2.87;;;;;;;3.45;100.00;100863.00;4887075;29;20196;-76
2021/04/21 01:40:20;;;;;;;7.33;2.53;;;;;;;3.48;100.00;100865.25;4917843;28;20319;-76
2021/04/21 01:42:48;;;;;;;5.13;2.87;;;;;;;3.38;100.00;100868.66;4904596;29;20226;-75
2021/04/21 01:45:18;;;;;;;3.73;2.53;;;;;;;3.46;100.00;100867.31;4889955;28;20198;-76
2021/04/21 01:47:48;;;;;;;5.50;3.17;;;;;;;3.58;100.00;100865.53;4921277;29;20208;-74
2021/04/21 01:50:14;;;;;;;5.53;3.13;;;;;;;3.61;100.00;100867.78;4890299;28;20192;-76
2021/04/21 01:52:52;;;;;;;4.30;2.90;;;;;;;3.55;100.00;100868.69;4920315;29;20200;-75
2021/04/21 01:55:21;;;;;;;7.07;2.97;;;;;;;3.53;100.00;100862.69;4920245;28;20195;-75
2021/04/21 01:57:49;;;;;;;5.33;2.73;;;;;;;3.49;100.00;100866.88;4952383;29;20194;-75
2021/04/21 02:00:21;;;;;;;6.00;2.80;;;;;;;3.67;100.00;100866.91;4955905;28;20179;-75
2021/04/21 02:02:52;;;;;;;4.43;3.10;;;;;;;3.58;100.00;100854.00;4970286;28;20290;-75
2021/04/21 02:05:20;;;;;;;4.03;2.80;;;;;;;3.51;100.00;100859.41;4955451;28;20187;-75
2021/04/21 02:08:03;;;;;;;5.67;3.30;;;;;;;3.46;100.00;100861.97;4932630;29;20194;-76
2021/04/21 02:10:57;;;;;;;4.50;2.97;;;;;;;3.42;100.00;100861.78;4889245;28;20227;-76
2021/04/21 02:13:36;;;;;;;3.80;2.93;;;;;;;3.42;100.00;100859.91;4932856;29;20570;-76
2021/04/21 02:16:14;;;;;;;5.07;3.07;;;;;;;3.54;100.00;100858.97;4904449;29;20775;-75
2021/04/21 02:18:51;;;;;;;5.73;3.00;;;;;;;3.53;100.00;100862.69;4906207;29;20187;-76
2021/04/21 02:21:20;;;;;;;4.47;3.00;;;;;;;3.46;100.00;100861.13;4936589;29;20621;-76
2021/04/21 02:24:06;;;;;;;4.37;2.73;;;;;;;3.40;100.00;100863.88;4935944;29;20260;-75
2021/04/21 02:26:47;;;;;;;5.17;3.37;;;;;;;3.34;100.00;100857.53;4925649;29;20227;-76
2021/04/21 02:29:34;;;;;;;3.63;3.00;;;;;;;3.26;99.91;100856.97;4925601;29;20192;-76
2021/04/21 02:32:23;;;;;;;3.73;3.10;;;;;;;3.20;99.61;100858.69;4938515;29;20239;-75
2021/04/21 02:35:07;;;;;;;3.93;3.10;;;;;;;3.09;99.62;100858.59;4926424;29;20259;-76
2021/04/21 02:37:49;;;;;;;4.67;3.00;;;;;;;2.98;100.00;100859.28;4925499;29;20231;-76
2021/04/21 02:40:24;;;;;;;4.67;3.10;;;;;;;2.94;100.00;100860.78;4909603;28;20206;-76
2021/04/21 02:42:56;;;;;;;5.13;3.00;;;;;;;2.93;100.00;100853.78;4940071;29;20227;-76
2021/04/21 02:45:37;;;;;;;4.50;3.07;;;;;;;2.97;100.00;100854.13;4925015;28;20223;-76
2021/04/21 02:48:19;;;;;;;3.70;2.97;;;;;;;2.70;100.00;100855.38;4939678;29;20191;-76
2021/04/21 02:50:51;;;;;;;6.07;3.13;;;;;;;2.70;100.00;100848.16;4907711;29;20230;-76
2021/04/21 02:53:28;;;;;;;4.43;3.07;;;;;;;2.73;100.00;100858.47;4907397;29;20263;-75
2021/04/21 02:56:06;;;;;;;5.27;3.20;;;;;;;2.90;100.00;100858.75;4924296;29;20245;-76
2021/04/21 02:59:00;;;;;;;4.60;3.07;;;;;;;2.83;100.00;100863.34;4939922;29;20577;-76
2021/04/21 03:01:41;;;;;;;4.23;3.27;;;;;;;2.67;100.00;100848.63;4914801;28;20231;-75
2021/04/21 03:04:14;;;;;;;4.00;3.10;;;;;;;2.56;100.00;100855.69;4925072;29;20187;-75
2021/04/21 03:06:43;;;;;;;5.93;2.90;;;;;;;2.62;100.00;100852.13;4974311;28;20352;-75
2021/04/21 03:09:12;;;;;;;6.07;3.13;;;;;;;2.80;100.00;100855.72;4942563;29;20187;-75
2021/04/21 03:11:37;;;;;;;6.93;2.90;;;;;;;2.92;100.00;100865.53;4958293;28;20246;-76
2021/04/21 03:14:15;;;;;;;7.50;2.83;;;;;;;2.85;100.00;100848.66;4958888;29;20179;-76
2021/04/21 03:16:55;;;;;;;5.17;3.27;;;;;;;2.95;100.00;100846.34;4958192;29;20230;-75
2021/04/21 03:19:21;;;;;;;4.13;3.10;;;;;;;2.86;100.00;100846.81;4927980;29;20191;-75
2021/04/21 03:21:54;;;;;;;5.87;3.40;;;;;;;2.94;100.00;100844.69;4957062;29;20230;-75
2021/04/21 03:24:24;;;;;;;4.03;3.10;;;;;;;2.89;100.00;100852.53;4942696;28;20233;-77
2021/04/21 03:26:59;;;;;;;4.73;3.13;;;;;;;2.82;100.00;100840.22;4922400;29;20227;-75
2021/04/21 03:29:41;;;;;;;5.43;3.00;;;;;;;2.79;100.00;100844.19;4941171;29;20274;-75
2021/04/21 03:32:10;;;;;;;5.50;3.33;;;;;;;2.68;100.00;100847.56;4943282;28;20246;-76
2021/04/21 03:34:37;;;;;;;4.83;3.70;;;;;;;2.79;100.00;100846.06;4928792;29;20195;-75
2021/04/21 03:37:03;;;;;;;5.10;3.17;;;;;;;2.61;100.00;100842.47;4942911;29;20251;-75
2021/04/21 03:39:31;;;;;;;4.10;3.20;;;;;;;2.66;100.00;100850.69;4943468;29;20197;-76
2021/04/21 03:41:56;;;;;;;6.13;3.03;;;;;;;2.71;100.00;100847.13;4942085;28;20776;-74
2021/04/21 03:44:24;;;;;;;4.50;3.03;;;;;;;2.76;100.00;100852.66;4952342;29;20195;-74
2021/04/21 03:46:55;;;;;;;5.70;3.27;;;;;;;2.75;100.00;100847.53;4919861;29;20612;-75
2021/04/21 03:49:20;;;;;;;3.77;3.10;;;;;;;2.68;100.00;100836.84;4943899;29;20673;-76
2021/04/21 03:51:51;;;;;;;3.20;2.90;;;;;;;2.65;100.00;100838.31;4959167;28;20241;-74
2021/04/21 03:54:16;;;;;;;5.10;3.30;;;;;;;2.54;100.00;100841.69;4959471;28;20187;-78
2021/04/21 03:56:42;;;;;;;7.77;4.20;;;;;;;2.46;100.00;100839.28;4943201;29;20246;-75
2021/04/21 03:59:07;;;;;;;4.87;3.57;;;;;;;2.43;100.00;100839.69;4928784;29;20203;-76
2021/04/21 04:01:33;;;;;;;6.67;3.30;;;;;;;2.36;100.00;100838.91;4950049;28;20238;-75
2021/04/21 04:04:05;;;;;;;4.30;3.50;;;;;;;2.31;100.00;100831.53;4927142;29;20574;-75
2021/04/21 04:06:48;;;;;;;6.43;3.73;;;;;;;2.30;100.00;100837.09;4944495;29;20294;-76
2021/04/21 04:09:20;;;;;;;4.30;3.20;;;;;;;2.23;100.00;100833.63;4927459;29;20195;-75
2021/04/21 04:11:55;;;;;;;5.13;3.20;;;;;;;2.24;100.00;100835.28;4954916;28;20231;-75
2021/04/21 04:14:29;;;;;;;6.07;3.60;;;;;;;2.24;100.00;100832.59;4925200;29;20206;-75
2021/04/21 04:16:59;;;;;;;5.37;3.10;;;;;;;2.22;100.00;100832.00;4955721;28;20234;-75
2021/04/21 04:19:26;;;;;;;6.03;3.50;;;;;;;2.11;100.00;100843.38;4924828;29;20219;-74
2021/04/21 04:22:03;;;;;;;4.47;3.20;;;;;;;2.14;100.00;100834.09;4907689;29;20234;-75
2021/04/21 04:24:34;;;;;;;6.37;3.30;;;;;;;2.13;100.00;100838.63;4935104;29;20187;-75
2021/04/21 04:27:00;;;;;;;5.03;3.33;;;;;;;1.93;100.00;100840.56;4928388;29;20234;-75
2021/04/21 04:29:28;;;;;;;6.33;3.80;;;;;;;2.08;100.00;100841.13;4943492;29;20728;-74
2021/04/21 04:31:58;;;;;;;3.90;3.03;;;;;;;2.22;100.00;100850.75;4928280;29;20233;-75
2021/04/21 04:34:26;;;;;;;6.13;3.50;;;;;;;2.25;100.00;100847.63;4939046;29;20187;-76
2021/04/21 04:36:53;;;;;;;5.23;3.27;;;;;;;2.27;100.00;100847.41;4937274;29;20226;-75
2021/04/21 04:39:22;;;;;;;5.23;3.50;;;;;;;2.24;100.00;100840.63;4938629;29;20182;-75
2021/04/21 04:41:50;;;;;;;7.13;3.90;;;;;;;2.48;100.00;100843.38;4935896;29;20245;-75
2021/04/21 04:44:18;;;;;;;3.93;3.17;;;;;;;2.59;100.00;100849.91;4969223;29;20222;-75
2021/04/21 04:46:46;;;;;;;6.13;3.53;;;;;;;2.79;100.00;100846.88;4930319;29;20230;-75
2021/04/21 04:49:14;;;;;;;5.70;3.23;;;;;;;2.97;100.00;100841.56;4927854;29;20214;-75
2021/04/21 04:51:44;;;;;;;4.27;3.30;;;;;;;3.03;100.00;100848.72;4943351;29;20226;-75
2021/04/21 04:54:10;;;;;;;5.77;3.60;;;;;;;3.11;100.00;100845.75;4929263;29;20195;-75
2021/04/21 04:56:36;;;;;;;4.47;3.37;;;;;;;3.15;100.00;100852.31;4942708;29;20231;-75
2021/04/21 04:59:03;;;;;;;6.17;3.57;;;;;;;3.18;99.93;100852.72;4927776;29;20214;-74
2021/04/21 05:01:46;;;;;;;6.73;3.50;;;;;;;3.31;99.63;100863.31;4927074;29;20239;-75
2021/04/21 05:04:16;;;;;;;4.77;3.40;;;;;;;3.31;99.30;100852.59;4945929;29;20238;-75
2021/04/21 05:06:51;;;;;;;4.57;3.30;;;;;;;3.51;98.68;100858.59;4926739;29;20230;-74
2021/04/21 05:09:18;;;;;;;3.73;3.27;;;;;;;3.48;98.27;100859.88;4928519;29;20682;-74
2021/04/21 05:11:47;;;;;;;4.83;3.30;;;;;;;3.67;98.93;100856.16;4957423;28;20798;-75
2021/04/21 05:14:14;;;;;;;4.80;3.10;;;;;;;3.86;98.68;100857.78;4945114;29;20183;-74
2021/04/21 05:16:55;;;;;;;4.63;2.87;;;;;;;3.96;98.47;100869.66;4942785;29;20223;-74
2021/04/21 05:19:51;;;;;;;5.77;3.30;;;;;;;4.08;98.34;100865.16;4962587;29;20197;-75
2021/04/21 05:22:36;;;;;;;4.70;3.47;;;;;;;4.31;98.17;100857.22;4960533;28;20238;-75
2021/04/21 05:25:15;;;;;;;7.63;3.90;;;;;;;4.42;98.08;100857.28;4962074;29;20222;-75
2021/04/21 05:28:22;;;;;;;5.57;3.60;;;;;;;4.48;97.57;100864.44;4917082;29;20281;-75
2021/04/21 05:31:25;;;;;;;6.57;3.47;;;;;;;4.57;96.40;100855.00;4963348;28;20281;-76
2021/04/21 05:33:56;;;;;;;3.30;3.00;;;;;;;4.69;95.09;100850.50;4961279;29;20178;-75
2021/04/21 05:37:00;;;;;;;5.47;3.00;;;;;;;4.66;95.88;100864.38;4957972;28;20285;-74
2021/04/21 05:39:28;;;;;;;5.30;2.73;;;;;;;4.82;95.45;100855.66;4957955;29;20195;-76
2021/04/21 05:42:19;;;;;;;4.00;3.00;;;;;;;4.95;93.76;100850.09;4956510;28;20231;-75
2021/04/21 05:45:22;;;;;;;4.10;3.10;;;;;;;4.91;93.14;100849.72;4959452;28;20273;-73
2021/04/21 05:48:37;;;;;;;4.80;3.00;;;;;;;4.93;93.51;100846.78;4960593;29;20214;-77
2021/04/21 05:51:42;;;;;;;3.53;2.90;;;;;;;5.07;93.83;100855.25;4868956;29;20248;-75
2021/04/21 05:54:32;;;;;;;4.43;3.20;;;;;;;5.39;92.88;100848.47;4973047;28;20202;-76
2021/04/21 05:57:15;;;;;;;4.17;2.93;;;;;;;5.44;92.46;100852.09;4956973;28;20290;-74
2021/04/21 06:00:14;;;;;;;5.73;3.50;;;;;;;5.67;92.86;100856.66;4959513;28;20191;-74
2021/04/21 06:02:41;;;;;;;4.60;3.10;;;;;;;5.82;92.04;100850.59;4958924;29;20242;-74
2021/04/21 06:05:08;;;;;;;4.47;3.23;;;;;;;5.80;91.65;100852.69;4944747;28;20198;-75
2021/04/21 06:07:36;;;;;;;8.07;3.33;;;;;;;5.88;91.73;100846.94;4945917;29;20537;-75
2021/04/21 06:10:28;;;;;;;4.33;3.30;;;;;;;6.20;90.73;100842.75;4945686;29;20244;-75
2021/04/21 06:12:58;;;;;;;5.47;3.47;;;;;;;6.35;90.47;100846.56;4960710;28;20234;-74
2021/04/21 06:15:25;;;;;;;4.97;3.90;;;;;;;6.49;90.82;100852.50;4945062;28;20226;-74
2021/04/21 06:17:55;;;;;;;7.73;3.97;;;;;;;6.57;91.04;100852.91;4929552;29;20187;-75
2021/04/21 06:20:37;;;;;;;9.00;3.90;;;;;;;6.69;91.26;100853.69;4930754;28;20179;-75
2021/04/21 06:23:10;;;;;;;6.07;3.90;;;;;;;6.71;90.24;100857.78;4961359;29;20207;-75
2021/04/21 06:25:38;;;;;;;9.07;4.27;;;;;;;6.98;89.65;100853.41;4944546;29;20249;-76
2021/04/21 06:28:17;;;;;;;5.93;4.03;;;;;;;7.11;89.14;100847.69;4960971;29;20215;-76
2021/04/21 06:30:47;;;;;;;9.23;5.73;;;;;;;7.22;89.12;100858.41;4913162;29;20684;-75
2021/04/21 06:33:13;;;;;;;12.73;10.70;;;;;;;7.36;88.49;100852.44;4928302;29;20278;-76
2021/04/21 06:35:42;;;;;;;21.27;16.43;;;;;;;7.66;87.14;100865.59;4941332;29;20247;-75
2021/04/21 06:38:10;;;;;;;13.93;12.50;;;;;;;7.72;87.67;100860.00;4911468;29;20187;-75
2021/04/21 06:40:39;;;;;;;10.70;9.13;;;;;;;8.09;86.21;100860.03;4909534;29;20705;-75
2021/04/21 06:43:05;;;;;;;8.90;7.17;;;;;;;8.43;84.81;100858.81;4924901;29;20212;-74
2021/04/21 06:45:35;;;;;;;8.30;5.70;;;;;;;8.59;84.76;100855.19;4924189;29;20230;-75
2021/04/21 06:48:03;;;;;;;7.23;4.97;;;;;;;8.94;83.78;100862.63;4926378;29;20215;-74
2021/04/21 06:50:30;;;;;;;7.40;4.30;;;;;;;9.24;82.64;100852.03;4925358;28;20220;-76
2021/04/21 06:53:03;;;;;;;8.00;5.30;;;;;;;9.43;80.10;100853.25;4940671;29;20184;-76
2021/04/21 06:55:34;;;;;;;7.67;6.23;;;;;;;9.75;78.63;100857.56;4924530;29;20227;-75
2021/04/21 06:58:02;;;;;;;9.13;6.50;;;;;;;9.86;75.89;100854.66;4925579;29;20184;-75
2021/04/21 07:00:28;;;;;;;8.27;4.60;;;;;;;10.11;72.50;100854.84;4924564;28;20191;-76
2021/04/21 07:03:01;;;;;;;7.03;5.53;;;;;;;10.55;70.13;100865.03;4908025;29;20216;-75
2021/04/21 07:05:41;;;;;;;8.17;4.53;;;;;;;10.79;67.67;100853.44;4909940;29;20247;-76
2021/04/21 07:08:17;;;;;;;6.83;4.53;;;;;;;10.97;62.07;100852.91;4924045;29;20630;-76
2021/04/21 07:10:53;;;;;;;5.33;3.90;;;;;;;11.24;59.69;100846.94;4906806;29;20230;-76
2021/04/21 07:13:26;;;;;;;6.77;4.43;;;;;;;11.30;58.29;100848.59;4941163;29;20183;-75
2021/04/21 07:15:58;;;;;;;5.33;4.37;;;;;;;11.64;56.11;100849.69;4923612;29;20230;-74
2021/04/21 07:18:31;;;;;;;6.73;4.23;;;;;;;11.62;55.24;100849.13;4910525;29;20200;-75
2021/04/21 07:20:57;;;;;;;6.17;4.40;;;;;;;11.85;55.09;100856.72;4926894;29;20971;-75
2021/04/21 07:23:27;;;;;;;4.17;3.77;;;;;;;12.03;53.74;100844.16;4913755;29;20241;-75
2021/04/21 07:25:58;;;;;;;7.50;4.43;;;;;;;12.04;52.48;100850.41;4959426;28;20282;-75
2021/04/21 07:28:23;;;;;;;5.80;3.70;;;;;;;12.25;52.09;100852.75;4961809;28;20187;-75
2021/04/21 07:30:51;;;;;;;6.27;3.87;;;;;;;12.27;49.44;100845.16;4941893;29;20249;-75
2021/04/21 07:33:44;;;;;;;4.53;3.50;;;;;;;12.21;49.67;100867.22;4911203;29;20195;-75
2021/04/21 07:36:18;;;;;;;5.47;3.70;;;;;;;12.50;51.81;100869.03;4911360;29;20242;-75
2021/04/21 07:38:44;;;;;;;6.53;3.83;;;;;;;12.47;50.35;100866.84;4925663;29;20192;-75
2021/04/21 07:41:10;;;;;;;5.20;3.63;;;;;;;12.58;48.34;100868.44;4925211;29;20308;-74
2021/04/21 07:43:41;;;;;;;6.20;4.20;;;;;;;12.77;48.72;100856.63;4924584;29;20218;-75
2021/04/21 07:46:20;;;;;;;5.27;4.27;;;;;;;12.74;48.24;100862.63;4910049;29;20286;-75
2021/04/21 07:48:45;;;;;;;6.07;4.17;;;;;;;12.79;43.92;100868.91;4897013;29;20197;-76
2021/04/21 07:51:26;;;;;;;6.23;4.10;;;;;;;12.79;45.71;100868.91;4926490;29;20235;-76
2021/04/21 07:54:02;;;;;;;6.43;4.00;;;;;;;12.53;46.03;100876.66;4942958;29;20215;-75
2021/04/21 07:56:53;;;;;;;6.87;4.40;;;;;;;12.83;46.87;100872.69;4928492;29;20328;-75
2021/04/21 07:59:23;;;;;;;6.70;4.30;;;;;;;12.98;46.42;100872.59;4937635;29;20214;-74
2021/04/21 08:01:49;;;;;;;6.33;4.10;;;;;;;12.87;46.95;100875.66;4979324;28;20235;-76
2021/04/21 08:04:20;;;;;;;5.50;4.50;;;;;;;13.11;47.65;100869.22;4981176;28;20186;-75
2021/04/21 08:06:50;;;;;;;6.37;4.70;;;;;;;13.12;45.75;100865.41;4964328;28;20253;-74
2021/04/21 08:09:16;;;;;;;4.73;3.67;;;;;;;13.09;43.95;100865.97;4965667;29;20203;-76
2021/04/21 08:11:44;;;;;;;5.57;3.67;;;;;;;12.89;45.23;100865.28;4959060;28;20222;-77
2021/04/21 08:14:13;;;;;;;6.73;3.83;;;;;;;12.79;44.99;100877.06;4943486;29;20184;-76
2021/04/21 08:16:38;;;;;;;5.33;3.57;;;;;;;12.82;45.76;100881.97;4940602;29;20263;-75
2021/04/21 08:19:14;;;;;;;5.23;4.03;;;;;;;12.73;45.09;100872.72;4925863;29;20192;-74
2021/04/21 08:21:44;;;;;;;6.90;4.43;;;;;;;12.87;45.88;100868.28;4959630;28;20250;-76
2021/04/21 08:24:14;;;;;;;4.97;3.87;;;;;;;13.08;45.13;100869.81;4951214;29;20184;-74
2021/04/21 08:26:46;;;;;;;8.17;3.83;;;;;;;13.17;43.89;100871.66;4925409;29;20235;-74
2021/04/21 08:29:13;;;;;;;5.10;3.53;;;;;;;13.34;43.36;100866.59;4941436;29;20210;-75
2021/04/21 08:31:42;;;;;;;6.30;4.47;;;;;;;13.36;42.91;100864.41;4939407;28;20238;-77
2021/04/21 08:34:08;;;;;;;6.43;3.77;;;;;;;13.45;42.41;100875.53;4925987;29;20215;-75
2021/04/21 08:36:36;;;;;;;5.57;3.70;;;;;;;13.52;42.87;100876.84;4960274;28;20305;-75
2021/04/21 08:39:04;;;;;;;4.67;3.50;;;;;;;13.55;42.32;100871.63;4976792;28;20502;-75
2021/04/21 08:41:30;;;;;;;4.43;3.50;;;;;;;13.84;42.63;100866.97;4974803;28;20234;-75
2021/04/21 08:44:03;;;;;;;5.83;3.30;;;;;;;13.77;40.06;100869.22;4929128;29;20607;-74
2021/04/21 08:46:28;;;;;;;5.73;3.33;;;;;;;14.16;39.95;100868.03;4944242;29;20231;-74
2021/04/21 08:48:54;;;;;;;4.53;3.47;;;;;;;14.07;38.86;100868.97;4930349;29;20194;-75
2021/04/21 08:51:22;;;;;;;5.77;3.27;;;;;;;14.31;39.77;100874.13;4960504;28;20234;-76
2021/04/21 08:53:52;;;;;;;4.90;3.33;;;;;;;14.42;38.74;100867.44;4943524;29;20191;-75
2021/04/21 08:56:22;;;;;;;5.30;3.20;;;;;;;14.25;38.00;100883.50;4960426;28;20230;-75
2021/04/21 08:58:48;;;;;;;5.00;3.13;;;;;;;14.57;38.41;100869.97;4961297;29;20187;-75
2021/04/21 09:01:16;;;;;;;5.87;3.43;;;;;;;14.58;37.69;100881.72;4945173;28;20347;-76
2021/04/21 09:03:42;;;;;;;5.30;3.40;;;;;;;14.49;37.91;100878.03;4943279;29;20325;-75
2021/04/21 09:06:10;;;;;;;4.27;3.43;;;;;;;14.66;38.96;100870.94;4941546;29;20234;-75
2021/04/21 09:08:40;;;;;;;5.20;3.60;;;;;;;14.94;37.84;100865.34;4910855;29;20609;-74
2021/04/21 09:11:06;;;;;;;6.47;3.47;;;;;;;14.74;36.47;100873.03;4937483;28;20317;-74
2021/04/21 09:13:34;;;;;;;5.50;3.65;;;;;;;15.01;37.94;100872.06;4950963;29;20266;-75
2021/04/21 09:16:00;;;;;;;4.53;3.20;;;;;;;15.10;36.33;100864.81;4954659;28;20390;-73
2021/04/21 09:18:33;;;;;;;5.47;3.60;;;;;;;15.22;35.95;100878.94;4953132;29;20183;-75
2021/04/21 09:21:03;;;;;;;4.93;3.45;;;;;;;15.02;36.12;100873.72;4956191;28;20701;-74
2021/04/21 09:23:42;;;;;;;5.90;3.40;;;;;;;15.00;36.58;100875.94;4955848;29;20210;-74
2021/04/21 09:26:21;;;;;;;6.68;3.63;;;;;;;15.00;36.79;100875.13;4956274;28;20230;-73
2021/04/21 09:28:49;;;;;;;6.07;3.60;;;;;;;15.03;37.66;100885.47;4942216;29;20270;-74
2021/04/21 09:31:19;;;;;;;5.60;3.60;;;;;;;15.36;35.83;100881.72;4940208;28;20309;-74
2021/04/21 09:33:44;;;;;;;5.13;3.42;;;;;;;14.95;36.17;100866.97;4922888;29;20193;-73
2021/04/21 09:36:17;;;;;;;6.00;3.53;;;;;;;15.02;37.38;100884.66;4938395;29;20223;-74
2021/04/21 09:38:45;;;;;;;5.95;3.63;;;;;;;15.17;36.45;100876.25;4940327;29;20271;-75
2021/04/21 09:41:17;;;;;;;5.63;3.50;;;;;;;15.31;38.11;100882.63;4954439;28;20230;-75
2021/04/21 09:43:44;;;;;;;4.25;3.67;;;;;;;15.65;37.23;100877.66;4938216;29;20273;-74
2021/04/21 09:46:18;;;;;;;4.80;3.53;;;;;;;15.80;36.13;100879.03;4939327;29;20223;-74
2021/04/21 09:48:47;;;;;;;6.85;4.00;;;;;;;15.49;38.01;100873.53;4908767;29;20221;-74
2021/04/21 09:51:19;;;;;;;6.78;4.35;;;;;;;15.90;37.88;100889.81;4940727;29;20218;-74
2021/04/21 09:53:50;;;;;;;6.72;4.47;;;;;;;15.65;37.75;100872.19;4925374;29;20178;-74
2021/04/21 09:56:22;;;;;;;9.13;4.78;;;;;;;15.67;37.80;100864.50;4940641;29;20339;-74
2021/04/21 09:59:01;;;;;;;9.23;4.72;;;;;;;15.58;39.11;100878.03;4940967;29;20198;-74
2021/04/21 10:01:31;;;;;;;7.40;5.32;;;;;;;15.82;40.26;100868.59;4940554;28;20709;-75
2021/04/21 10:04:09;;;;;;;8.48;5.30;;;;;;;16.20;38.53;100873.63;4938613;29;20230;-74
2021/04/21 10:06:39;;;;;;;8.68;5.97;;;;;;;15.79;41.79;100887.56;4948776;28;20227;-75
2021/04/21 10:09:06;;;;;;;7.63;5.35;;;;;;;15.94;42.85;100871.66;4941175;29;20183;-75
2021/04/21 10:11:32;;;;;;;6.25;5.43;;;;;;;15.72;42.12;100872.63;4952138;28;20219;-73
2021/04/21 10:14:01;;;;;;;7.90;6.13;;;;;;;15.79;44.54;100874.66;4944177;29;20198;-74
2021/04/21 10:16:29;;;;;;;9.07;6.80;;;;;;;15.07;46.17;100879.13;4944586;28;20227;-74
2021/04/21 10:18:55;;;;;;;8.85;6.53;;;;;;;15.31;45.71;100871.66;4939265;29;20227;-77
2021/04/21 10:21:20;;;;;;;8.85;6.40;;;;;;;15.05;47.71;100872.31;4970572;28;20246;-74
2021/04/21 10:23:49;;;;;;;10.50;7.10;;;;;;;15.66;47.54;100862.84;4937994;29;20289;-73
2021/04/21 10:26:16;;;;;;;7.63;6.82;;;;;;;15.55;46.34;100866.91;4938053;28;20223;-72
2021/04/21 10:28:42;;;;;;;10.80;7.78;;;;;;;15.73;47.77;100863.28;4945379;29;20262;-74
2021/04/21 10:31:09;;;;;;;11.82;7.75;;;;;;;15.97;46.55;100857.34;4953181;28;20231;-74
2021/04/21 10:33:35;;;;;;;12.02;8.30;;;;;;;16.07;46.99;100862.63;4947003;28;20184;-74
2021/04/21 10:36:01;;;;;;;10.40;9.20;;;;;;;15.62;48.03;100867.31;4937745;29;20249;-74
2021/04/21 10:38:29;;;;;;;14.93;10.05;;;;;;;16.14;49.32;100860.31;4924308;29;20179;-74
2021/04/21 10:41:25;;;;;;;12.18;10.88;;;;;;;15.22;53.23;100881.66;4919735;29;20294;-74
2021/04/21 10:44:19;;;;;;;14.90;12.18;;;;;;;15.28;56.09;100877.72;4936473;29;20219;-72
2021/04/21 10:47:04;;;;;;;13.05;11.70;;;;;;;15.14;54.51;100874.09;4924823;29;20239;-74
2021/04/21 10:50:00;;;;;;;15.23;11.77;;;;;;;15.06;54.88;100874.75;4956694;29;20195;-74
2021/04/21 10:52:25;;;;;;;13.20;11.32;;;;;;;15.29;54.95;100873.91;4939612;28;20669;-73
2021/04/21 10:55:01;;;;;;;17.70;12.88;;;;;;;14.93;56.28;100873.88;4955720;28;20191;-75
2021/04/21 10:57:34;;;;;;;13.65;11.90;;;;;;;15.46;54.41;100868.69;4941560;29;20638;-74
2021/04/21 11:00:17;;;;;;;15.23;11.77;;;;;;;15.70;53.97;100869.38;4941282;29;20226;-74
2021/04/21 11:02:50;;;;;;;14.40;12.00;;;;;;;15.37;54.05;100859.53;4972140;28;20222;-74
2021/04/21 11:05:21;;;;;;;15.30;12.98;;;;;;;16.16;53.49;100862.75;4956742;28;20246;-75
2021/04/21 11:08:01;;;;;;;16.73;12.07;;;;;;;16.42;53.48;100868.25;4957204;28;20190;-74
2021/04/21 11:10:40;;;;;;;15.80;11.75;;;;;;;15.72;52.47;100883.56;4925098;28;20257;-74
2021/04/21 11:13:09;;;;;;;13.50;10.98;;;;;;;15.75;51.77;100872.00;4961081;28;20249;-75
2021/04/21 11:15:37;;;;;;;13.30;11.90;;;;;;;15.25;52.23;100872.84;4953952;28;20222;-73
2021/04/21 11:18:09;;;;;;;15.02;12.48;;;;;;;15.24;53.17;100873.16;4955117;29;20198;-74
2021/04/21 11:21:07;;;;;;;13.47;11.60;;;;;;;15.45;51.84;100867.03;4947119;28;20249;-75
2021/04/21 11:23:59;;;;;;;18.60;13.90;;;;;;;15.90;54.91;100876.09;4919143;29;20223;-74
2021/04/21 11:26:28;;;;;;;19.10;13.07;;;;;;;15.57;55.34;100870.16;4943936;28;20255;-74
2021/04/21 11:29:15;;;;;;;14.77;12.90;;;;;;;15.35;55.56;100878.16;4944704;28;20190;-73
2021/04/21 11:31:50;;;;;;;15.80;12.68;;;;;;;15.47;55.51;100879.31;4950555;29;20235;-73
2021/04/21 11:34:34;;;;;;;18.10;13.60;;;;;;;15.10;56.45;100875.78;4952015;28;20278;-74
2021/04/21 11:37:14;;;;;;;16.23;12.63;;;;;;;14.90;59.46;100886.19;4924040;29;20238;-73
2021/04/21 11:39:42;;;;;;;16.93;12.80;;;;;;;14.85;58.58;100886.28;4956443;29;20187;-73
2021/04/21 11:42:20;;;;;;;17.30;12.02;;;;;;;15.92;53.88;100876.63;4956973;28;20231;-74
2021/04/21 11:45:03;;;;;;;14.63;11.95;;;;;;;16.44;53.15;100887.16;4961156;28;20214;-73
2021/04/21 11:47:29;;;;;;;14.27;11.57;;;;;;;15.41;55.15;100871.50;4961054;28;20211;-74
2021/04/21 11:50:00;;;;;;;14.63;12.48;;;;;;;14.63;58.83;100896.13;4977262;28;20180;-72
2021/04/21 11:52:47;;;;;;;15.00;12.15;;;;;;;14.63;57.84;100890.66;4969051;28;20234;-73
2021/04/21 11:55:56;;;;;;;14.98;11.70;;;;;;;15.51;55.35;100877.63;4935643;28;20190;-73